Beaux Arts Village, Washington
Current Conditions -  °F | °C
As of 6:53 AM on Monday 24 Nov 2014 (Local Time) from KBFI Reporting Station
Overcast Overcast  
Wind Chill: 37°   Ceiling: 10000
Heat Index: 41°   Visibility: 10mi
Dew Point: 36°   Wind: 6mph
Humidity: 82%   Direction: 150°SSE
Pressure: 30.35"   Gusts: NA
Location:  47.6186°N, 122.204°W
Report Text: KBFI 241453Z 15005KT 10SM BKN100 OVC200 05/02 A3035 RMK AO2 SLP277 T00500022 55003
Loading
Personal Weather Stations






























Interactive Weather Map New forecast layout! Learn more

10-Day Weather Forecast

Advertisements
Track Severe Weather on mobile